createdAt,value
2022-10-16T00:00:38.251Z,98.18
2022-10-16T00:03:05.597Z,97.90
2022-10-16T00:05:32.454Z,97.84
2022-10-16T00:07:59.067Z,97.64
2022-10-16T00:10:25.639Z,97.39
2022-10-16T00:12:52.138Z,97.39
2022-10-16T00:15:18.813Z,97.40
2022-10-16T00:17:45.232Z,97.19
2022-10-16T00:20:11.643Z,97.18
2022-10-16T00:22:38.096Z,96.90
2022-10-16T00:25:04.794Z,96.61
2022-10-16T00:27:31.199Z,96.39
2022-10-16T00:32:29.142Z,95.97
2022-10-16T00:34:55.656Z,95.76
2022-10-16T00:37:22.246Z,95.73
2022-10-16T00:39:48.784Z,95.14
2022-10-16T00:42:19.314Z,94.80
2022-10-16T00:44:53.491Z,94.56
2022-10-16T00:47:24.081Z,94.17
2022-10-16T00:49:53.036Z,93.75
2022-10-16T00:52:20.267Z,93.67
2022-10-16T00:54:47.676Z,93.66
2022-10-16T00:59:46.109Z,93.41
2022-10-16T01:02:15.282Z,93.04
2022-10-16T01:04:45.131Z,92.85
2022-10-16T01:07:30.558Z,92.60
2022-10-16T01:10:22.197Z,92.71
2022-10-16T01:12:51.776Z,93.00
2022-10-16T01:18:50.854Z,93.41
2022-10-16T01:21:23.769Z,93.35
2022-10-16T01:24:10.399Z,93.84
2022-10-16T01:27:10.746Z,93.89
2022-10-16T01:30:11.699Z,93.88
2022-10-16T01:32:43.373Z,94.11
2022-10-16T01:35:13.278Z,94.08
2022-10-16T01:37:46.881Z,94.09
2022-10-16T01:40:16.165Z,94.00
2022-10-16T01:42:51.400Z,93.83
2022-10-16T01:45:19.235Z,93.76
2022-10-16T01:47:46.696Z,93.54
2022-10-16T01:50:14.995Z,93.68
2022-10-16T01:52:44.622Z,94.09
2022-10-16T01:55:14.459Z,94.15
2022-10-16T01:57:42.687Z,93.89
2022-10-16T02:00:11.823Z,93.95
2022-10-16T02:02:41.114Z,93.91
2022-10-16T02:05:17.092Z,93.96
2022-10-16T02:07:43.791Z,94.37
2022-10-16T02:10:10.677Z,94.72
2022-10-16T02:12:40.496Z,94.58
2022-10-16T02:15:07.715Z,94.70
2022-10-16T02:17:34.476Z,94.66
2022-10-16T02:20:01.365Z,94.56
2022-10-16T02:22:31.445Z,94.50
2022-10-16T02:25:00.739Z,94.40
2022-10-16T02:27:40.183Z,94.58
2022-10-16T02:30:09.330Z,94.83
2022-10-16T02:32:38.229Z,95.06
2022-10-16T02:35:05.568Z,95.22
2022-10-16T02:37:32.332Z,95.15
2022-10-16T02:39:59.323Z,95.28
2022-10-16T02:42:31.016Z,95.05
2022-10-16T02:44:57.484Z,94.97
2022-10-16T02:47:23.915Z,95.10
2022-10-16T02:49:50.369Z,94.81
2022-10-16T02:52:16.940Z,94.73
2022-10-16T02:54:43.360Z,94.24
2022-10-16T02:57:09.794Z,93.96
2022-10-16T02:59:36.247Z,93.20
2022-10-16T03:02:02.670Z,93.12
2022-10-16T03:04:29.115Z,92.86
2022-10-16T03:06:55.564Z,92.78
2022-10-16T03:09:21.993Z,92.59
2022-10-16T03:11:48.479Z,92.56
2022-10-16T03:14:14.931Z,92.57
2022-10-16T03:16:41.395Z,92.06
2022-10-16T03:19:07.990Z,91.88
2022-10-16T03:21:34.465Z,92.17
2022-10-16T03:24:00.957Z,92.09
2022-10-16T03:26:27.413Z,91.91
2022-10-16T03:28:53.939Z,92.05
2022-10-16T03:31:20.424Z,92.18
2022-10-16T03:33:46.872Z,92.33
2022-10-16T03:36:13.564Z,92.09
2022-10-16T03:38:39.997Z,91.91
2022-10-16T03:41:08.704Z,92.09
2022-10-16T03:43:35.176Z,92.14
2022-10-16T03:46:01.685Z,91.83
2022-10-16T03:48:28.300Z,91.89
2022-10-16T03:50:55.847Z,92.02
2022-10-16T03:53:22.494Z,91.90
2022-10-16T03:55:49.054Z,92.19
2022-10-16T03:58:15.543Z,92.18
2022-10-16T04:00:46.371Z,92.09
2022-10-16T04:03:12.946Z,92.32
2022-10-16T04:05:39.891Z,92.42
2022-10-16T04:08:06.591Z,92.65
2022-10-16T04:10:33.125Z,92.71
2022-10-16T04:12:59.599Z,92.59
2022-10-16T04:15:26.347Z,92.63
2022-10-16T04:17:53.157Z,92.77
2022-10-16T04:20:19.802Z,92.92
2022-10-16T04:22:46.282Z,92.73
2022-10-16T04:25:12.883Z,93.03
2022-10-16T04:27:42.236Z,93.02
2022-10-16T04:30:12.037Z,92.94
2022-10-16T04:32:38.501Z,92.81
2022-10-16T04:35:05.312Z,92.78
2022-10-16T04:37:31.780Z,92.76
2022-10-16T04:39:58.334Z,92.72
2022-10-16T04:42:24.790Z,92.67
2022-10-16T04:44:51.400Z,92.77
2022-10-16T04:47:17.925Z,92.83
2022-10-16T04:49:44.488Z,92.77
2022-10-16T04:52:11.138Z,92.89
2022-10-16T04:54:37.791Z,92.96
2022-10-16T04:57:05.831Z,93.04
2022-10-16T04:59:32.369Z,93.09
2022-10-16T05:01:58.932Z,93.01
2022-10-16T05:04:25.461Z,92.89
2022-10-16T05:06:51.987Z,92.91
2022-10-16T05:09:18.736Z,92.92
2022-10-16T05:11:45.262Z,93.25
2022-10-16T05:16:38.303Z,93.84
2022-10-16T05:19:26.420Z,93.53
2022-10-16T05:21:51.513Z,93.09
2022-10-16T05:24:18.092Z,93.14
2022-10-16T05:26:55.207Z,93.15
2022-10-16T05:29:23.517Z,93.24
2022-10-16T05:31:54.170Z,93.54
2022-10-16T05:34:21.836Z,93.63
2022-10-16T05:36:48.377Z,93.82
2022-10-16T05:39:16.345Z,93.76
2022-10-16T05:41:43.629Z,93.06
2022-10-16T05:44:11.317Z,92.82
2022-10-16T05:46:37.880Z,92.17
2022-10-16T05:49:04.516Z,91.64
2022-10-16T05:51:31.172Z,91.71
2022-10-16T05:53:57.825Z,92.56
2022-10-16T05:56:24.381Z,93.34
2022-10-16T05:58:50.977Z,94.14
2022-10-16T06:01:19.600Z,94.80
2022-10-16T06:03:46.310Z,94.95
2022-10-16T06:06:15.173Z,95.29
2022-10-16T06:08:42.949Z,95.37
2022-10-16T06:11:12.058Z,95.36
2022-10-16T06:13:39.917Z,95.27
2022-10-16T06:16:06.979Z,95.17
2022-10-16T06:18:33.523Z,95.30
2022-10-16T06:21:00.116Z,95.56
2022-10-16T06:23:29.591Z,96.03
2022-10-16T06:26:05.499Z,96.30
2022-10-16T06:28:32.186Z,96.60
2022-10-16T06:31:05.619Z,96.51
2022-10-16T06:33:35.425Z,96.32
2022-10-16T06:36:15.125Z,96.44
2022-10-16T06:38:42.091Z,96.55
2022-10-16T06:41:10.691Z,96.91
2022-10-16T06:43:37.328Z,96.68
2022-10-16T06:46:05.891Z,96.10
2022-10-16T06:48:32.437Z,95.48
2022-10-16T06:51:19.515Z,94.80
2022-10-16T06:54:05.394Z,94.69
2022-10-16T06:56:33.183Z,94.81
2022-10-16T06:59:00.233Z,95.08
2022-10-16T07:01:27.356Z,95.23
2022-10-16T07:03:54.271Z,95.02
2022-10-16T07:06:22.952Z,95.50
2022-10-16T07:08:49.639Z,96.51
2022-10-16T07:11:18.583Z,97.01
2022-10-16T07:13:50.825Z,97.55
2022-10-16T07:16:22.724Z,97.87
2022-10-16T07:18:50.284Z,97.82
2022-10-16T07:21:20.418Z,98.05
2022-10-16T07:23:51.544Z,98.33
2022-10-16T07:26:18.362Z,98.59
2022-10-16T07:28:45.204Z,98.71
2022-10-16T07:31:14.376Z,98.84
2022-10-16T07:33:42.958Z,99.02
2022-10-16T07:36:12.478Z,99.30
2022-10-16T07:38:43.513Z,99.53
2022-10-16T07:41:14.150Z,99.86
2022-10-16T07:43:41.136Z,100.00
2022-10-16T07:46:07.770Z,100.00
2022-10-16T07:48:35.410Z,100.00
2022-10-16T07:51:04.537Z,100.00
2022-10-16T07:53:31.470Z,100.00
2022-10-16T07:56:05.067Z,100.00
2022-10-16T07:58:32.015Z,100.00
2022-10-16T08:00:59.110Z,100.00
2022-10-16T08:03:26.568Z,100.00
2022-10-16T08:05:53.134Z,100.00
2022-10-16T08:08:20.203Z,100.00
2022-10-16T08:10:46.857Z,100.00
2022-10-16T08:13:16.568Z,100.00
2022-10-16T08:15:44.125Z,100.00
2022-10-16T08:18:12.372Z,100.00
2022-10-16T08:20:39.919Z,100.00
2022-10-16T08:23:07.862Z,99.54
2022-10-16T08:25:38.373Z,99.05
2022-10-16T08:28:30.301Z,98.74
2022-10-16T08:30:57.990Z,98.20
2022-10-16T08:33:27.126Z,97.62
2022-10-16T08:35:56.879Z,97.06
2022-10-16T08:38:23.520Z,96.16
2022-10-16T08:40:52.872Z,94.63
2022-10-16T08:43:29.954Z,93.25
2022-10-16T08:46:20.750Z,91.82
2022-10-16T08:48:49.460Z,90.34
2022-10-16T08:51:49.422Z,89.45
2022-10-16T08:54:41.821Z,88.63
2022-10-16T08:57:13.407Z,87.18
2022-10-16T08:59:40.000Z,86.83
2022-10-16T09:02:22.102Z,85.55
2022-10-16T09:04:58.080Z,84.79
2022-10-16T09:07:36.077Z,84.28
2022-10-16T09:10:25.899Z,83.73
2022-10-16T09:13:19.190Z,82.85
2022-10-16T09:15:57.261Z,80.94
2022-10-16T09:18:46.620Z,80.86
2022-10-16T09:21:28.890Z,80.84
2022-10-16T09:23:58.009Z,80.73
2022-10-16T09:26:24.963Z,80.46
2022-10-16T09:28:53.624Z,80.17
2022-10-16T09:31:22.022Z,79.88
2022-10-16T09:33:54.280Z,79.74
2022-10-16T09:36:21.896Z,79.65
2022-10-16T09:38:48.801Z,79.64
2022-10-16T09:41:20.398Z,79.21
2022-10-16T09:43:46.983Z,78.58
2022-10-16T09:46:35.797Z,77.61
2022-10-16T09:49:23.658Z,76.54
2022-10-16T09:51:50.720Z,76.31
2022-10-16T09:54:21.907Z,76.34
2022-10-16T09:56:53.318Z,76.39
2022-10-16T09:59:22.937Z,76.58
2022-10-16T10:01:54.387Z,75.80
2022-10-16T10:04:22.639Z,75.18
2022-10-16T10:06:52.380Z,74.49
2022-10-16T10:09:22.332Z,73.88
2022-10-16T10:11:56.183Z,73.06
2022-10-16T10:14:42.463Z,73.19
2022-10-16T10:17:21.057Z,72.53
2022-10-16T10:19:52.012Z,71.66
2022-10-16T10:22:24.661Z,71.09
2022-10-16T10:25:00.520Z,70.10
2022-10-16T10:27:50.386Z,69.22
2022-10-16T10:30:45.765Z,69.05
2022-10-16T10:33:39.758Z,69.03
2022-10-16T10:36:35.864Z,68.93
2022-10-16T10:39:50.127Z,68.67
2022-10-16T10:42:33.411Z,68.37
2022-10-16T10:45:27.049Z,68.15
2022-10-16T10:48:13.298Z,68.20
2022-10-16T10:50:44.538Z,68.38
2022-10-16T10:53:17.201Z,68.74
2022-10-16T10:55:52.952Z,68.58
2022-10-16T10:58:25.574Z,68.61
2022-10-16T11:00:52.108Z,68.52
2022-10-16T11:03:58.179Z,67.99
2022-10-16T11:06:28.350Z,67.64
2022-10-16T11:09:02.150Z,65.21
2022-10-16T11:11:31.678Z,63.64
2022-10-16T11:14:05.692Z,62.90
2022-10-16T11:16:41.355Z,62.17
2022-10-16T11:19:31.050Z,60.64
2022-10-16T11:22:05.992Z,60.61
2022-10-16T11:25:29.396Z,60.47
2022-10-16T11:28:22.067Z,59.50
2022-10-16T11:31:05.068Z,59.28
2022-10-16T11:33:42.503Z,58.66
2022-10-16T11:36:20.485Z,57.90
2022-10-16T11:38:56.427Z,57.86
2022-10-16T11:41:28.604Z,57.87
2022-10-16T11:44:04.522Z,57.79
2022-10-16T11:46:32.257Z,56.77
2022-10-16T11:49:07.838Z,56.36
2022-10-16T11:51:40.542Z,56.62
2022-10-16T11:54:29.232Z,56.68
2022-10-16T11:57:04.916Z,55.64
2022-10-16T11:59:45.719Z,56.15
2022-10-16T12:02:40.553Z,56.52
2022-10-16T12:05:22.049Z,55.61
2022-10-16T12:08:01.889Z,54.95
2022-10-16T12:10:32.702Z,54.71
2022-10-16T12:12:59.371Z,54.65
2022-10-16T12:18:25.893Z,54.75
2022-10-16T12:21:05.478Z,55.01
2022-10-16T12:23:35.729Z,54.99
2022-10-16T12:26:03.831Z,54.35
2022-10-16T12:28:32.936Z,54.62
2022-10-16T12:31:07.905Z,52.96
2022-10-16T12:33:36.465Z,53.32
2022-10-16T12:36:31.548Z,54.09
2022-10-16T12:38:58.510Z,54.87
2022-10-16T12:41:33.199Z,54.03
2022-10-16T12:44:04.644Z,54.20
2022-10-16T12:46:31.230Z,54.63
2022-10-16T12:49:13.089Z,54.62
2022-10-16T12:51:40.257Z,54.07
2022-10-16T12:54:18.847Z,54.37
2022-10-16T12:56:48.455Z,53.95
2022-10-16T12:59:30.157Z,53.70
2022-10-16T13:02:40.690Z,53.88
2022-10-16T13:05:15.557Z,53.33
2022-10-16T13:08:02.720Z,53.11
2022-10-16T13:10:42.131Z,52.97
2022-10-16T13:13:33.120Z,52.00
2022-10-16T13:16:09.104Z,51.70
2022-10-16T13:18:55.126Z,51.13
2022-10-16T13:21:47.419Z,50.68
2022-10-16T13:24:26.539Z,51.26
2022-10-16T13:27:30.765Z,50.81
2022-10-16T13:30:19.680Z,51.23
2022-10-16T13:35:23.962Z,51.16
2022-10-16T13:37:51.398Z,50.70
2022-10-16T13:40:22.894Z,50.82
2022-10-16T13:42:50.583Z,48.51
2022-10-16T13:45:28.860Z,48.08
2022-10-16T13:48:06.387Z,48.13
2022-10-16T13:50:33.061Z,47.88
2022-10-16T13:53:07.260Z,47.46
2022-10-16T13:55:34.344Z,46.79
2022-10-16T13:58:14.465Z,46.85
2022-10-16T14:00:42.160Z,46.58
2022-10-16T14:03:14.869Z,46.77
2022-10-16T14:05:50.297Z,46.99
2022-10-16T14:08:17.373Z,47.08
2022-10-16T14:10:44.335Z,47.00
2022-10-16T14:13:18.108Z,46.99
2022-10-16T14:15:47.825Z,47.22
2022-10-16T14:18:23.124Z,47.47
2022-10-16T14:20:50.808Z,47.63
2022-10-16T14:23:24.963Z,47.76
2022-10-16T14:25:51.656Z,47.18
2022-10-16T14:28:21.213Z,46.64
2022-10-16T14:30:55.538Z,46.73
2022-10-16T14:33:42.278Z,46.77
2022-10-16T14:36:14.692Z,47.26
2022-10-16T14:38:44.385Z,47.75
2022-10-16T14:41:11.128Z,47.98
2022-10-16T14:43:39.412Z,47.51
2022-10-16T14:46:14.395Z,47.22
2022-10-16T14:48:47.089Z,47.16
2022-10-16T14:51:18.134Z,46.97
2022-10-16T14:53:44.845Z,46.61
2022-10-16T14:56:33.299Z,45.63
2022-10-16T14:59:00.652Z,44.87
2022-10-16T15:01:27.343Z,44.71
2022-10-16T15:03:55.676Z,44.85
2022-10-16T15:06:23.339Z,45.21
2022-10-16T15:08:50.205Z,45.38
2022-10-16T15:11:20.559Z,45.67
2022-10-16T15:13:47.420Z,45.95
2022-10-16T15:16:16.350Z,45.92
2022-10-16T15:18:43.438Z,46.19
2022-10-16T15:21:37.314Z,45.96
2022-10-16T15:24:03.959Z,45.79
2022-10-16T15:26:31.460Z,46.01
2022-10-16T15:28:58.466Z,46.29
2022-10-16T15:31:25.313Z,46.52
2022-10-16T15:33:55.344Z,46.77
2022-10-16T15:36:29.884Z,47.16
2022-10-16T15:38:57.101Z,47.29
2022-10-16T15:41:24.393Z,47.95
2022-10-16T15:43:52.250Z,47.84
2022-10-16T15:46:20.811Z,47.73
2022-10-16T15:48:49.174Z,47.81
2022-10-16T15:51:15.917Z,48.14
2022-10-16T15:53:42.677Z,48.35
2022-10-16T15:56:10.719Z,48.62
2022-10-16T15:58:37.648Z,48.69
2022-10-16T16:01:05.423Z,49.07
2022-10-16T16:03:33.375Z,48.96
2022-10-16T16:06:05.234Z,49.41
2022-10-16T16:08:31.961Z,49.88
2022-10-16T16:11:00.453Z,50.43
2022-10-16T16:13:35.207Z,50.68
2022-10-16T16:16:04.585Z,51.40
2022-10-16T16:18:31.187Z,51.66
2022-10-16T16:20:58.064Z,52.29
2022-10-16T16:23:25.658Z,52.75
2022-10-16T16:26:07.479Z,53.23
2022-10-16T16:28:34.253Z,53.46
2022-10-16T16:31:00.725Z,54.32
2022-10-16T16:33:27.278Z,54.78
2022-10-16T16:36:00.641Z,55.14
2022-10-16T16:38:27.709Z,55.63
2022-10-16T16:40:56.340Z,55.82
2022-10-16T16:43:27.388Z,55.60
2022-10-16T16:45:54.260Z,55.48
2022-10-16T16:48:21.285Z,55.94
2022-10-16T16:50:47.853Z,56.51
2022-10-16T16:53:14.381Z,56.86
2022-10-16T16:55:40.847Z,57.41
2022-10-16T16:58:07.298Z,57.52
2022-10-16T17:00:33.687Z,57.52
2022-10-16T17:03:00.303Z,58.24
2022-10-16T17:05:26.963Z,58.34
2022-10-16T17:07:53.385Z,58.02
2022-10-16T17:10:19.790Z,58.31
2022-10-16T17:12:46.336Z,58.85
2022-10-16T17:15:12.783Z,58.95
2022-10-16T17:17:39.257Z,59.25
2022-10-16T17:20:06.069Z,59.62
2022-10-16T17:22:32.499Z,60.44
2022-10-16T17:24:58.911Z,60.28
2022-10-16T17:27:25.412Z,60.36
2022-10-16T17:29:52.460Z,60.35
2022-10-16T17:32:20.757Z,60.73
2022-10-16T17:34:47.336Z,61.03
2022-10-16T17:37:15.748Z,61.10
2022-10-16T17:39:44.530Z,61.44
2022-10-16T17:42:10.950Z,61.86
2022-10-16T17:44:37.413Z,61.27
2022-10-16T17:47:03.813Z,61.13
2022-10-16T17:49:30.411Z,60.71
2022-10-16T17:51:56.967Z,60.49
2022-10-16T17:54:23.479Z,60.24
2022-10-16T17:56:49.923Z,60.58
2022-10-16T17:59:16.545Z,61.33
2022-10-16T18:01:45.864Z,61.07
2022-10-16T18:04:15.278Z,61.55
2022-10-16T18:06:43.820Z,62.31
2022-10-16T18:09:12.368Z,62.82
2022-10-16T18:11:38.816Z,63.28
2022-10-16T18:14:05.498Z,63.71
2022-10-16T18:16:32.634Z,63.90
2022-10-16T18:18:59.576Z,64.26
2022-10-16T18:21:29.910Z,64.47
2022-10-16T18:23:58.223Z,64.47
2022-10-16T18:26:24.906Z,64.41
2022-10-16T18:28:56.463Z,64.33
2022-10-16T18:31:23.642Z,64.81
2022-10-16T18:33:53.032Z,64.71
2022-10-16T18:36:22.408Z,64.96
2022-10-16T18:38:49.281Z,65.17
2022-10-16T18:41:15.770Z,65.09
2022-10-16T18:43:42.238Z,65.15
2022-10-16T18:46:11.805Z,65.18
2022-10-16T18:48:40.156Z,65.29
2022-10-16T18:51:18.649Z,65.49
2022-10-16T18:53:47.889Z,65.43
2022-10-16T18:56:15.148Z,65.29
2022-10-16T18:58:43.116Z,65.42
2022-10-16T19:01:11.719Z,65.55
2022-10-16T19:03:43.241Z,66.03
2022-10-16T19:06:12.300Z,65.92
2022-10-16T19:08:39.199Z,66.15
2022-10-16T19:11:07.649Z,66.20
2022-10-16T19:13:34.338Z,66.17
2022-10-16T19:16:19.491Z,66.46
2022-10-16T19:18:47.686Z,66.41
2022-10-16T19:21:15.150Z,66.36
2022-10-16T19:23:42.265Z,66.58
2022-10-16T19:26:14.814Z,66.90
2022-10-16T19:28:41.598Z,67.18
2022-10-16T19:31:11.607Z,66.70
2022-10-16T19:33:38.538Z,66.27
2022-10-16T19:36:14.080Z,66.11
2022-10-16T19:38:41.191Z,65.33
2022-10-16T19:41:12.639Z,65.53
2022-10-16T19:43:39.164Z,65.40
2022-10-16T19:46:14.293Z,66.22
2022-10-16T19:48:41.207Z,66.37
2022-10-16T19:51:11.873Z,66.51
2022-10-16T19:53:38.306Z,67.01
2022-10-16T19:56:16.135Z,66.59
2022-10-16T19:58:43.363Z,65.91
2022-10-16T20:01:09.880Z,65.60
2022-10-16T20:03:36.491Z,66.31
2022-10-16T20:06:06.899Z,66.79
2022-10-16T20:08:34.590Z,67.12
2022-10-16T20:11:01.546Z,67.31
2022-10-16T20:13:28.290Z,67.67
2022-10-16T20:15:54.732Z,67.93
2022-10-16T20:18:21.587Z,68.07
2022-10-16T20:20:50.906Z,67.98
2022-10-16T20:23:18.526Z,67.83
2022-10-16T20:25:45.602Z,68.05
2022-10-16T20:28:18.232Z,68.06
2022-10-16T20:30:46.623Z,68.30
2022-10-16T20:33:13.741Z,68.20
2022-10-16T20:35:42.462Z,68.29
2022-10-16T20:38:09.334Z,68.15
2022-10-16T20:40:39.268Z,68.17
2022-10-16T20:43:06.338Z,68.10
2022-10-16T20:45:32.996Z,68.30
2022-10-16T20:47:59.957Z,68.34
2022-10-16T20:50:32.660Z,68.54
2022-10-16T20:53:00.223Z,68.76
2022-10-16T20:55:27.227Z,69.13
2022-10-16T20:57:53.947Z,69.10
2022-10-16T21:00:20.438Z,69.53
2022-10-16T21:02:50.332Z,69.73
2022-10-16T21:05:16.945Z,69.71
2022-10-16T21:07:43.462Z,70.06
2022-10-16T21:10:10.164Z,70.09
2022-10-16T21:12:36.589Z,70.10
2022-10-16T21:15:14.498Z,70.23
2022-10-16T21:17:41.448Z,70.43
2022-10-16T21:20:08.322Z,70.69
2022-10-16T21:22:34.729Z,70.68
2022-10-16T21:25:01.134Z,70.63
2022-10-16T21:27:27.531Z,70.80
2022-10-16T21:29:54.347Z,70.84
2022-10-16T21:32:23.608Z,70.94
2022-10-16T21:34:50.017Z,71.05
2022-10-16T21:37:16.455Z,71.00
2022-10-16T21:39:42.924Z,70.93
2022-10-16T21:42:09.388Z,70.96
2022-10-16T21:44:35.903Z,71.21
2022-10-16T21:47:02.321Z,71.22
2022-10-16T21:49:28.884Z,71.28
2022-10-16T21:51:55.344Z,71.49
2022-10-16T21:54:23.713Z,71.62
2022-10-16T21:56:50.427Z,71.61
2022-10-16T21:59:16.944Z,72.14
2022-10-16T22:01:44.047Z,71.78
2022-10-16T22:04:11.817Z,71.86
2022-10-16T22:06:38.702Z,71.96
2022-10-16T22:09:05.225Z,71.67
2022-10-16T22:11:37.756Z,71.69
2022-10-16T22:14:05.755Z,71.86
2022-10-16T22:16:32.502Z,71.81
2022-10-16T22:18:59.797Z,71.86
2022-10-16T22:21:28.412Z,71.96
2022-10-16T22:23:55.111Z,72.58
2022-10-16T22:26:21.706Z,72.86
2022-10-16T22:28:48.208Z,73.21
2022-10-16T22:31:15.121Z,73.98
2022-10-16T22:33:42.161Z,74.29
2022-10-16T22:36:11.638Z,74.36
2022-10-16T22:38:38.310Z,74.70
2022-10-16T22:41:06.452Z,74.73
2022-10-16T22:43:36.296Z,74.81
2022-10-16T22:46:04.576Z,74.38
2022-10-16T22:48:30.997Z,74.05
2022-10-16T22:50:57.426Z,73.79
2022-10-16T22:53:23.935Z,73.81
2022-10-16T22:55:50.424Z,73.58
2022-10-16T22:58:16.888Z,73.72
2022-10-16T23:00:44.505Z,73.88
2022-10-16T23:03:11.495Z,73.92
2022-10-16T23:05:39.140Z,74.28
2022-10-16T23:08:06.039Z,74.01
2022-10-16T23:10:32.916Z,74.11
2022-10-16T23:12:59.318Z,74.25
2022-10-16T23:15:25.750Z,74.45
2022-10-16T23:17:52.164Z,74.59
2022-10-16T23:20:18.582Z,74.88
2022-10-16T23:22:45.032Z,74.96
2022-10-16T23:25:11.526Z,75.16
2022-10-16T23:27:37.939Z,75.40
2022-10-16T23:30:06.820Z,75.43
2022-10-16T23:32:33.872Z,75.27
2022-10-16T23:35:00.366Z,75.47
2022-10-16T23:37:27.035Z,75.55
2022-10-16T23:39:54.045Z,75.72
2022-10-16T23:42:20.540Z,75.82
2022-10-16T23:44:47.031Z,75.82
2022-10-16T23:47:13.447Z,75.92
2022-10-16T23:49:39.857Z,75.96
2022-10-16T23:52:07.141Z,76.02
2022-10-16T23:54:33.584Z,76.14
2022-10-16T23:57:00.181Z,76.13
2022-10-16T23:59:26.613Z,76.15
